Banner Elk, North Carolina
Current Conditions -  °F | °C
As of 7:35 PM on Friday 24 Oct 2014 (Local Time) from KTNB Reporting Station
Clear Clear  
Wind Chill: 52°   Ceiling: Unl
Heat Index: 52°   Visibility: 10mi
Dew Point: 34°   Wind: 8mph
Humidity: 49%   Direction: 290°WNW
Pressure: 30.06"   Gusts: NA
Location:  36.16°N, 81.87°W
Report Text: KTNB 242335Z AUTO 29007KT 10SM CLR 11/01 A3006 RMK AO2 T01130010
Loading
Personal Weather Stations






























Interactive Weather Map
Tropical Storm Tracking
New forecast layout! Learn more

10-Day Weather Forecast

Advertisements
Track Severe Weather on mobile